Aérodrome :
LOGIN :

S'inscrire | Disclaimer

   EN    FR    IT 

 










Légende :    VFR   VFR Marginal   IFR   IFR Intensif   IFR Très Intensif
Visi : 
Plafond : 
>= 8 km
>= 3000ft
5 à 8 km
1000 à 3000 ft
1500m à 5 km
500 à 1000 ft
800 à 1500m
200 à 500 ft
< 800m
< 200 ft
Symboles :   Orages  Brouillard  Fortes neiges  Fortes précipitations  Vent > 20 kt
SIGMETs :   Divers  Orages  Givrage  Turbulence  Onde Orograph.  Cendres Volcan.







- Altitude de l'aérodrome : 148 ft
- Code IATA : ALL


LIMG - Villanova D'Albenga International

DERNIER METAR :
  • 211550Z 22004KT CAVOK 16/04 Q1008

METARs EXPIRÉS :
  • 211450Z 07003KT CAVOK 18/04 Q1007
  • 211350Z VRB03KT CAVOK 19/04 Q1006

Prévision TAF périmée.
Pas de NOTAMs connus pour ce terrain.
5 SIGMETs publiés pour la FIR Milano (LIMM) :
 
Givrage fort
LIMM SIGMET 15 VALID 211645/212045 LIIP
LIMM MILANO FIR SEV ICE FCST NW OF LINE N4513 E00658 - N4616 E00840 FL120/170 STNR NC=
Turbulence forte
LIMM SIGMET 14 VALID 211620/212020 LIIP
LIMM MILANO FIR SEV TURB FCST WI N4442 E00902 - N4334 E01247 - N4335 E01015 - N4442 E00902 FL040/110 STNR WKN=
Onde orographique forte
LIMM SIGMET 13 VALID 211625/212025 LIIP
LIMM MILANO FIR SEV MTW FCST N OF LINE N4511 E00635 - N4545 E01403 FL120/230 STNR NC=
Turbulence forte
LIMM SIGMET 12 VALID 211620/212020 LIIP
LIMM MILANO FIR SEV TURB OBS N OF LINE N4500 E00632 - N4543 E01402 FL050/120 STNR NC=
Givrage fort
LIMM SIGMET 11 VALID 211245/211645 LIIP
LIMM MILANO FIR SEV ICE FCST NW OF LINE N4513 E00658 - N4616 E00840 FL130/200 STNR NC=



MET'MAP, la Météo Aéronautique d'un coup d'oeil ! - Copyright ORBIFLY Décembre 2007 - Disclaimer

ORBIFLY MET'MAP TEAM :

Programmation & Développement : Alexandra Zaïnal
Conception & Développement : Baudouin d'Aumeries
Co-Programmation & Développement : Marc-Olivier Méhu
Soutien technique & logistique : Manuel Goepfert

Contact : metmap@orbifly.com




SOURCES & CREDITS :

   NOAA